createdAt,value
2018-11-23T00:01:43.105Z,25.27
2018-11-23T00:04:12.313Z,25.90
2018-11-23T00:06:41.564Z,24.33
2018-11-23T00:09:11.061Z,26.60
2018-11-23T00:11:40.669Z,27.47
2018-11-23T00:14:10.173Z,27.13
2018-11-23T00:16:39.696Z,26.67
2018-11-23T00:19:09.249Z,25.27
2018-11-23T00:21:38.757Z,26.73
2018-11-23T00:24:08.256Z,27.20
2018-11-23T00:26:37.742Z,26.17
2018-11-23T00:29:07.293Z,27.00
2018-11-23T00:31:36.833Z,26.87
2018-11-23T00:34:06.857Z,26.77
2018-11-23T00:36:35.989Z,27.33
2018-11-23T00:39:06.817Z,26.20
2018-11-23T00:41:36.010Z,26.17
2018-11-23T00:44:06.281Z,26.37
2018-11-23T00:46:35.820Z,25.60
2018-11-23T00:49:05.603Z,27.00
2018-11-23T00:51:35.141Z,26.77
2018-11-23T00:54:04.306Z,26.17
2018-11-23T00:56:33.765Z,25.57
2018-11-23T00:59:03.265Z,27.03
2018-11-23T01:01:38.101Z,26.67
2018-11-23T01:04:07.586Z,26.00
2018-11-23T01:06:36.733Z,26.33
2018-11-23T01:09:09.519Z,26.83
2018-11-23T01:11:38.997Z,28.37
2018-11-23T01:14:08.669Z,26.83
2018-11-23T01:16:40.569Z,27.17
2018-11-23T01:19:12.280Z,25.37
2018-11-23T01:21:49.371Z,27.27
2018-11-23T01:24:23.546Z,27.20
2018-11-23T01:26:58.348Z,26.30
2018-11-23T01:29:31.772Z,27.43
2018-11-23T01:32:05.225Z,27.87
2018-11-23T01:34:35.117Z,25.73
2018-11-23T01:37:04.745Z,25.27
2018-11-23T01:39:34.213Z,26.47
2018-11-23T01:42:03.749Z,25.10
2018-11-23T01:44:37.428Z,27.53
2018-11-23T01:47:06.932Z,25.33
2018-11-23T01:49:36.502Z,27.17
2018-11-23T01:52:05.652Z,24.03
2018-11-23T01:54:35.061Z,26.90
2018-11-23T01:57:04.596Z,26.87
2018-11-23T01:59:34.121Z,26.07
2018-11-23T02:02:04.013Z,27.23
2018-11-23T02:04:33.529Z,26.03
2018-11-23T02:07:03.014Z,25.33
2018-11-23T02:09:32.502Z,25.17
2018-11-23T02:12:02.053Z,26.47
2018-11-23T02:14:31.578Z,26.00
2018-11-23T02:17:01.082Z,27.10
2018-11-23T02:19:30.581Z,25.87
2018-11-23T02:22:00.091Z,25.60
2018-11-23T02:24:29.607Z,26.63
2018-11-23T02:26:59.153Z,28.23
2018-11-23T02:29:28.682Z,26.87
2018-11-23T02:31:58.177Z,26.93
2018-11-23T02:34:27.688Z,28.17
2018-11-23T02:36:57.257Z,27.80
2018-11-23T02:39:26.733Z,27.93
2018-11-23T02:41:56.206Z,26.70
2018-11-23T02:44:25.713Z,28.13
2018-11-23T02:46:55.497Z,27.17
2018-11-23T02:49:25.042Z,26.77
2018-11-23T02:51:54.513Z,28.00
2018-11-23T02:54:24.049Z,28.07
2018-11-23T02:56:53.306Z,27.77
2018-11-23T02:59:24.037Z,28.07
2018-11-23T03:01:52.270Z,28.23
2018-11-23T03:04:21.826Z,27.70
2018-11-23T03:06:51.333Z,29.83
2018-11-23T03:09:20.809Z,28.07
2018-11-23T03:11:49.960Z,27.90
2018-11-23T03:14:19.376Z,27.50
2018-11-23T03:16:48.869Z,28.03
2018-11-23T03:19:18.377Z,28.07
2018-11-23T03:21:47.886Z,29.00
2018-11-23T03:24:17.405Z,30.67
2018-11-23T03:26:46.945Z,29.67
2018-11-23T03:29:16.417Z,29.40
2018-11-23T03:31:46.409Z,28.87
2018-11-23T03:34:16.502Z,28.10
2018-11-23T03:36:46.014Z,29.43
2018-11-23T03:39:15.537Z,29.10
2018-11-23T03:41:47.680Z,29.20
2018-11-23T03:44:19.121Z,29.77
2018-11-23T03:46:48.338Z,29.77
2018-11-23T03:49:17.792Z,29.47
2018-11-23T03:51:47.348Z,30.40
2018-11-23T03:54:16.862Z,28.87
2018-11-23T03:56:46.514Z,30.37
2018-11-23T03:59:16.021Z,29.33
2018-11-23T04:01:45.178Z,29.23
2018-11-23T04:04:14.640Z,29.10
2018-11-23T04:06:44.265Z,29.13
2018-11-23T04:09:13.749Z,28.50
2018-11-23T04:11:43.239Z,27.93
2018-11-23T04:14:12.714Z,29.77
2018-11-23T04:16:41.856Z,29.73
2018-11-23T04:19:11.261Z,30.80
2018-11-23T04:21:40.762Z,29.73
2018-11-23T04:24:10.291Z,28.47
2018-11-23T04:26:39.841Z,28.97
2018-11-23T04:29:09.329Z,29.17
2018-11-23T04:31:38.809Z,28.87
2018-11-23T04:34:08.023Z,28.90
2018-11-23T04:36:37.421Z,30.07
2018-11-23T04:39:08.205Z,29.20
2018-11-23T04:41:37.909Z,30.30
2018-11-23T04:44:07.405Z,30.43
2018-11-23T04:46:36.925Z,28.97
2018-11-23T04:49:06.509Z,31.53
2018-11-23T04:51:36.043Z,29.37
2018-11-23T04:54:06.452Z,29.13
2018-11-23T04:56:35.969Z,29.10
2018-11-23T04:59:06.408Z,30.47
2018-11-23T05:01:36.185Z,29.63
2018-11-23T05:04:05.765Z,29.70
2018-11-23T05:06:35.249Z,30.50
2018-11-23T05:09:06.249Z,29.73
2018-11-23T05:11:35.668Z,28.60
2018-11-23T05:14:05.245Z,30.87
2018-11-23T05:16:34.720Z,31.30
2018-11-23T05:19:03.902Z,29.17
2018-11-23T05:21:33.329Z,30.93
2018-11-23T05:24:03.583Z,29.87
2018-11-23T05:26:33.084Z,29.80
2018-11-23T05:29:02.220Z,29.57
2018-11-23T05:31:31.698Z,29.63
2018-11-23T05:34:01.223Z,29.73
2018-11-23T05:36:30.721Z,29.97
2018-11-23T05:39:00.195Z,29.87
2018-11-23T05:41:29.709Z,29.73
2018-11-23T05:43:59.216Z,28.90
2018-11-23T05:46:28.709Z,30.57
2018-11-23T05:48:58.268Z,30.67
2018-11-23T05:51:27.457Z,30.23
2018-11-23T05:53:56.895Z,30.20
2018-11-23T05:56:26.456Z,29.93
2018-11-23T05:58:56.009Z,30.47
2018-11-23T06:01:25.510Z,30.30
2018-11-23T06:03:55.229Z,29.23
2018-11-23T06:06:24.428Z,30.20
2018-11-23T06:08:53.466Z,30.97
2018-11-23T06:11:22.978Z,31.90
2018-11-23T06:13:52.606Z,29.90
2018-11-23T06:16:22.141Z,30.53
2018-11-23T06:18:51.663Z,32.00
2018-11-23T06:21:21.191Z,32.47
2018-11-23T06:23:51.353Z,30.90
2018-11-23T06:26:23.077Z,31.93
2018-11-23T06:28:52.346Z,31.57
2018-11-23T06:31:21.436Z,31.77
2018-11-23T06:33:50.733Z,30.67
2018-11-23T06:36:19.873Z,31.40
2018-11-23T06:38:48.977Z,32.00
2018-11-23T06:41:18.087Z,32.00
2018-11-23T06:44:05.041Z,31.13
2018-11-23T06:46:37.128Z,31.63
2018-11-23T06:49:06.902Z,31.60
2018-11-23T06:51:41.869Z,30.50
2018-11-23T06:54:14.470Z,32.50
2018-11-23T06:56:41.101Z,31.63
2018-11-23T06:59:10.246Z,33.00
2018-11-23T07:01:39.678Z,30.07
2018-11-23T07:04:08.860Z,33.43
2018-11-23T07:06:37.971Z,30.17
2018-11-23T07:09:08.805Z,31.80
2018-11-23T07:11:38.386Z,33.70
2018-11-23T07:14:07.530Z,31.00
2018-11-23T07:16:36.616Z,32.60
2018-11-23T07:19:06.166Z,31.90
2018-11-23T07:21:35.682Z,32.87
2018-11-23T07:24:05.586Z,32.43
2018-11-23T07:26:35.118Z,32.47
2018-11-23T07:29:05.010Z,32.13
2018-11-23T07:31:34.220Z,34.63
2018-11-23T07:34:03.321Z,33.57
2018-11-23T07:36:32.829Z,36.73
2018-11-23T07:39:01.973Z,33.87
2018-11-23T07:41:42.323Z,32.23
2018-11-23T07:44:11.862Z,33.40
2018-11-23T07:46:41.008Z,35.83
2018-11-23T07:49:10.293Z,33.83
2018-11-23T07:51:39.721Z,35.23
2018-11-23T07:54:09.278Z,35.43
2018-11-23T07:56:38.469Z,34.20
2018-11-23T07:59:07.533Z,35.53
2018-11-23T08:01:36.618Z,33.63
2018-11-23T08:04:06.090Z,35.63
2018-11-23T08:06:35.622Z,34.27
2018-11-23T08:09:06.529Z,34.37
2018-11-23T08:11:36.143Z,34.77
2018-11-23T08:14:05.742Z,33.37
2018-11-23T08:16:34.853Z,35.20
2018-11-23T08:19:03.925Z,35.60
2018-11-23T08:21:33.580Z,34.07
2018-11-23T08:24:02.764Z,36.50
2018-11-23T08:26:32.271Z,37.20
2018-11-23T08:29:01.551Z,37.20
2018-11-23T08:31:30.870Z,35.33
2018-11-23T08:34:00.319Z,37.43
2018-11-23T08:36:29.531Z,37.37
2018-11-23T08:39:04.591Z,36.90
2018-11-23T08:41:27.888Z,37.70
2018-11-23T08:43:57.365Z,32.80
2018-11-23T08:46:26.289Z,35.70
2018-11-23T08:48:55.393Z,34.93
2018-11-23T08:51:24.526Z,34.07
2018-11-23T08:53:53.986Z,33.73
2018-11-23T08:56:23.168Z,34.30
2018-11-23T08:58:52.836Z,35.67
2018-11-23T09:01:22.272Z,37.47
2018-11-23T09:03:51.353Z,34.13
2018-11-23T09:06:20.433Z,35.20
2018-11-23T09:08:49.929Z,35.70
2018-11-23T09:11:19.085Z,32.40
2018-11-23T09:13:48.222Z,35.77
2018-11-23T09:16:17.338Z,35.90
2018-11-23T09:18:46.475Z,36.57
2018-11-23T09:21:15.942Z,36.80
2018-11-23T09:23:45.497Z,36.67
2018-11-23T09:26:15.177Z,36.57
2018-11-23T09:28:44.281Z,39.50
2018-11-23T09:31:13.749Z,37.93
2018-11-23T09:33:44.258Z,36.47
2018-11-23T09:36:13.757Z,35.90
2018-11-23T09:38:42.900Z,36.50
2018-11-23T09:41:12.330Z,36.43
2018-11-23T09:43:41.887Z,35.60
2018-11-23T09:46:11.462Z,35.70
2018-11-23T09:48:40.961Z,34.03
2018-11-23T09:51:10.257Z,36.27
2018-11-23T09:53:39.682Z,36.03
2018-11-23T09:56:08.860Z,38.53
2018-11-23T09:58:43.472Z,39.23
2018-11-23T10:03:37.791Z,35.30
2018-11-23T10:06:07.331Z,37.97
2018-11-23T10:08:37.524Z,37.47
2018-11-23T10:11:06.446Z,37.73
2018-11-23T10:13:36.005Z,37.47
2018-11-23T10:16:05.578Z,35.63
2018-11-23T10:18:35.086Z,36.60
2018-11-23T10:21:04.322Z,35.47
2018-11-23T10:23:33.373Z,36.63
2018-11-23T10:26:02.510Z,34.23
2018-11-23T10:28:31.966Z,34.77
2018-11-23T10:31:01.496Z,34.23
2018-11-23T10:33:31.029Z,34.90
2018-11-23T10:36:00.233Z,34.53
2018-11-23T10:38:29.634Z,36.97
2018-11-23T10:40:58.858Z,34.73
2018-11-23T10:43:27.930Z,35.70
2018-11-23T10:45:57.189Z,36.53
2018-11-23T10:48:26.314Z,36.50
2018-11-23T10:50:55.773Z,35.97
2018-11-23T10:53:25.293Z,36.53
2018-11-23T10:55:54.485Z,36.23
2018-11-23T10:58:23.910Z,35.63
2018-11-23T11:00:58.468Z,37.17
2018-11-23T11:03:33.926Z,37.10
2018-11-23T11:06:09.144Z,37.60
2018-11-23T11:08:39.125Z,38.27
2018-11-23T11:11:08.748Z,39.67
2018-11-23T11:13:38.189Z,37.77
2018-11-23T11:16:07.371Z,38.07
2018-11-23T11:18:36.422Z,37.87
2018-11-23T11:21:05.937Z,38.47
2018-11-23T11:23:35.021Z,38.30
2018-11-23T11:26:04.478Z,40.17
2018-11-23T11:28:36.130Z,37.17
2018-11-23T11:31:06.031Z,38.97
2018-11-23T11:33:35.212Z,38.97
2018-11-23T11:36:04.301Z,40.20
2018-11-23T11:38:33.754Z,40.97
2018-11-23T11:41:02.925Z,39.80
2018-11-23T11:43:32.017Z,40.83
2018-11-23T11:46:01.450Z,41.60
2018-11-23T11:48:31.001Z,43.10
2018-11-23T11:51:00.202Z,38.30
2018-11-23T11:53:29.331Z,41.57
2018-11-23T11:55:58.758Z,40.37
2018-11-23T11:58:28.328Z,42.37
2018-11-23T12:00:57.974Z,41.53
2018-11-23T12:03:27.166Z,44.80
2018-11-23T12:05:56.252Z,41.43
2018-11-23T12:08:25.306Z,43.57
2018-11-23T12:10:54.676Z,40.60
2018-11-23T12:13:23.837Z,43.73
2018-11-23T12:15:53.432Z,41.73
2018-11-23T12:18:22.969Z,52.17
2018-11-23T12:20:52.525Z,46.93
2018-11-23T12:23:21.702Z,42.00
2018-11-23T12:25:51.169Z,47.03
2018-11-23T12:28:20.773Z,42.63
2018-11-23T12:31:05.229Z,39.73
2018-11-23T12:33:34.752Z,41.70
2018-11-23T12:36:03.913Z,43.13
2018-11-23T12:38:33.323Z,43.17
2018-11-23T12:41:02.923Z,42.10
2018-11-23T12:43:32.132Z,42.00
2018-11-23T12:46:01.217Z,41.63
2018-11-23T12:48:30.642Z,42.10
2018-11-23T12:51:00.195Z,40.67
2018-11-23T12:53:29.326Z,43.63
2018-11-23T12:55:58.770Z,40.63
2018-11-23T12:58:29.346Z,40.87
2018-11-23T13:00:58.885Z,42.27
2018-11-23T13:03:28.057Z,40.97
2018-11-23T13:05:57.469Z,42.10
2018-11-23T13:08:27.005Z,41.83
2018-11-23T13:10:56.557Z,40.53
2018-11-23T13:13:26.134Z,40.97
2018-11-23T13:15:55.681Z,44.77
2018-11-23T13:18:24.853Z,44.83
2018-11-23T13:20:54.277Z,45.13
2018-11-23T13:23:23.459Z,41.87
2018-11-23T13:25:52.961Z,42.13
2018-11-23T13:28:22.467Z,41.70
2018-11-23T13:30:51.389Z,40.83
2018-11-23T13:33:20.846Z,41.87
2018-11-23T13:35:50.317Z,41.67
2018-11-23T13:38:19.802Z,42.23
2018-11-23T13:40:49.014Z,41.83
2018-11-23T13:43:18.441Z,41.70
2018-11-23T13:45:48.093Z,42.10
2018-11-23T13:48:20.020Z,41.57
2018-11-23T13:50:46.214Z,43.27
2018-11-23T13:53:15.622Z,40.87
2018-11-23T13:55:45.138Z,43.13
2018-11-23T13:58:14.724Z,39.60
2018-11-23T14:00:44.283Z,40.57
2018-11-23T14:03:13.455Z,40.13
2018-11-23T14:05:42.541Z,42.87
2018-11-23T14:08:11.617Z,40.93
2018-11-23T14:10:40.674Z,39.87
2018-11-23T14:13:11.634Z,41.87
2018-11-23T14:15:38.850Z,43.73
2018-11-23T14:18:08.290Z,42.67
2018-11-23T14:20:37.509Z,40.60
2018-11-23T14:23:06.941Z,42.73
2018-11-23T14:25:36.094Z,41.80
2018-11-23T14:28:05.398Z,40.40
2018-11-23T14:30:35.039Z,40.43
2018-11-23T14:33:05.051Z,44.33
2018-11-23T14:35:35.182Z,40.77
2018-11-23T14:38:04.970Z,44.83
2018-11-23T14:40:34.675Z,41.17
2018-11-23T14:43:04.413Z,42.70
2018-11-23T14:45:34.914Z,44.57
2018-11-23T14:48:06.990Z,44.83
2018-11-23T14:50:40.499Z,44.70
2018-11-23T14:53:11.898Z,43.37
2018-11-23T14:55:41.067Z,42.27
2018-11-23T14:58:09.869Z,40.33
2018-11-23T15:00:39.187Z,40.70
2018-11-23T15:03:08.920Z,43.50
2018-11-23T15:05:38.881Z,41.83
2018-11-23T15:08:08.652Z,47.83
2018-11-23T15:10:38.185Z,41.80
2018-11-23T15:13:07.972Z,42.03
2018-11-23T15:15:40.745Z,41.97
2018-11-23T15:18:10.173Z,46.73
2018-11-23T15:20:42.031Z,52.63
2018-11-23T15:23:14.359Z,47.03
2018-11-23T15:25:43.493Z,41.93
2018-11-23T15:28:12.810Z,42.07
2018-11-23T15:30:43.073Z,42.97
2018-11-23T15:33:14.259Z,43.80
2018-11-23T15:35:44.329Z,46.27
2018-11-23T15:38:16.546Z,47.63
2018-11-23T15:40:46.472Z,47.53
2018-11-23T15:43:17.029Z,44.60
2018-11-23T15:45:46.584Z,49.10
2018-11-23T15:48:15.689Z,48.10
2018-11-23T15:50:45.306Z,49.90
2018-11-23T15:53:15.958Z,66.57
2018-11-23T15:55:45.486Z,44.57
2018-11-23T15:58:16.342Z,46.57
2018-11-23T16:00:47.049Z,47.07
2018-11-23T16:03:16.939Z,43.53
2018-11-23T16:05:46.376Z,44.27
2018-11-23T16:08:18.446Z,45.57
2018-11-23T16:10:48.018Z,47.27
2018-11-23T16:13:17.188Z,44.40
2018-11-23T16:15:46.276Z,44.77
2018-11-23T16:18:15.151Z,45.50
2018-11-23T16:20:46.773Z,46.17
2018-11-23T16:23:17.719Z,48.30
2018-11-23T16:25:48.153Z,45.27
2018-11-23T16:28:17.360Z,43.63
2018-11-23T16:30:47.821Z,45.80
2018-11-23T16:33:18.894Z,45.30
2018-11-23T16:35:48.497Z,45.07
2018-11-23T16:38:20.897Z,43.63
2018-11-23T16:40:53.065Z,43.63
2018-11-23T16:43:22.609Z,44.77
2018-11-23T16:45:52.361Z,43.33
2018-11-23T16:48:22.414Z,44.23
2018-11-23T16:50:51.571Z,42.93
2018-11-23T16:53:21.010Z,45.70
2018-11-23T16:55:50.205Z,43.33
2018-11-23T16:58:19.643Z,40.80
2018-11-23T17:00:49.153Z,45.63
2018-11-23T17:03:19.946Z,47.30
2018-11-23T17:05:50.607Z,42.07
2018-11-23T17:08:20.210Z,41.60
2018-11-23T17:10:49.359Z,45.40
2018-11-23T17:13:18.814Z,41.23
2018-11-23T17:15:47.987Z,43.27
2018-11-23T17:18:17.096Z,44.80
2018-11-23T17:20:46.545Z,47.90
2018-11-23T17:23:15.733Z,47.00
2018-11-23T17:25:44.789Z,47.63
2018-11-23T17:28:13.877Z,47.20
2018-11-23T17:30:43.289Z,92.57
2018-11-23T17:33:12.445Z,104.37
2018-11-23T17:35:41.913Z,83.77
2018-11-23T17:38:11.056Z,53.93
2018-11-23T17:40:41.031Z,47.17
2018-11-23T17:43:10.942Z,46.13
2018-11-23T17:45:41.431Z,45.80
2018-11-23T17:48:11.433Z,50.00
2018-11-23T17:50:40.653Z,71.47
2018-11-23T17:53:09.752Z,91.27
2018-11-23T17:55:39.157Z,54.17
2018-11-23T17:58:08.405Z,46.13
2018-11-23T18:00:39.431Z,46.83
2018-11-23T18:03:07.934Z,45.77
2018-11-23T18:05:37.119Z,50.37
2018-11-23T18:08:06.586Z,47.10
2018-11-23T18:10:36.250Z,48.73
2018-11-23T18:13:05.446Z,44.03
2018-11-23T18:15:35.233Z,42.00
2018-11-23T18:18:05.616Z,44.60
2018-11-23T18:20:35.045Z,45.17
2018-11-23T18:23:05.466Z,44.47
2018-11-23T18:25:36.732Z,45.20
2018-11-23T18:28:06.326Z,40.57
2018-11-23T18:30:35.878Z,41.37
2018-11-23T18:33:07.029Z,41.97
2018-11-23T18:35:36.233Z,49.77
2018-11-23T18:38:05.803Z,82.10
2018-11-23T18:40:37.317Z,79.03
2018-11-23T18:43:05.462Z,52.60
2018-11-23T18:45:34.619Z,43.90
2018-11-23T18:48:04.741Z,41.27
2018-11-23T18:50:34.313Z,44.83
2018-11-23T18:53:03.830Z,43.70
2018-11-23T18:55:33.028Z,41.77
2018-11-23T18:58:01.866Z,41.37
2018-11-23T19:00:31.352Z,43.77
2018-11-23T19:03:00.865Z,45.03
2018-11-23T19:05:30.047Z,44.83
2018-11-23T19:07:59.464Z,45.17
2018-11-23T19:10:29.149Z,44.83
2018-11-23T19:12:58.739Z,45.27
2018-11-23T19:15:28.223Z,43.97
2018-11-23T19:17:59.181Z,47.53
2018-11-23T19:20:28.733Z,45.17
2018-11-23T19:22:58.213Z,44.27
2018-11-23T19:25:27.724Z,46.20
2018-11-23T19:28:01.097Z,69.33
2018-11-23T19:30:30.353Z,74.03
2018-11-23T19:32:59.742Z,42.53
2018-11-23T19:35:29.245Z,40.77
2018-11-23T19:37:58.890Z,43.63
2018-11-23T19:40:28.463Z,45.63
2018-11-23T19:42:58.010Z,47.60
2018-11-23T19:45:27.544Z,45.60
2018-11-23T19:57:01.609Z,43.50
2018-11-23T19:59:30.781Z,41.57
2018-11-23T20:02:00.266Z,43.37
2018-11-23T20:04:29.877Z,46.10
2018-11-23T20:06:59.462Z,46.40
2018-11-23T20:09:29.026Z,113.37
2018-11-23T20:11:58.582Z,89.63
2018-11-23T20:14:28.181Z,59.27
2018-11-23T20:16:57.753Z,49.10
2018-11-23T20:19:27.361Z,48.33
2018-11-23T20:21:57.534Z,50.00
2018-11-23T20:24:27.093Z,42.13
2018-11-23T20:26:56.658Z,45.43
2018-11-23T20:29:26.261Z,48.07
2018-11-23T20:31:55.766Z,46.80
2018-11-23T20:34:25.471Z,42.20
2018-11-23T20:36:54.629Z,43.67
2018-11-23T20:39:23.749Z,45.90
2018-11-23T20:41:53.202Z,49.97
2018-11-23T20:44:22.759Z,50.83
2018-11-23T20:46:52.338Z,52.73
2018-11-23T20:49:21.529Z,51.17
2018-11-23T20:51:50.601Z,52.57
2018-11-23T20:54:20.145Z,52.10
2018-11-23T20:56:49.343Z,48.27
2018-11-23T20:59:18.927Z,50.13
2018-11-23T21:01:48.488Z,52.13
2018-11-23T21:04:17.649Z,46.63
2018-11-23T21:06:47.109Z,48.43
2018-11-23T21:09:16.722Z,43.73
2018-11-23T21:11:46.286Z,55.60
2018-11-23T21:14:15.814Z,67.10
2018-11-23T21:16:45.401Z,57.33
2018-11-23T21:19:14.966Z,45.10
2018-11-23T21:21:44.580Z,43.37
2018-11-23T21:24:14.297Z,45.30
2018-11-23T21:26:43.842Z,43.07
2018-11-23T21:29:13.008Z,41.50
2018-11-23T21:31:42.445Z,42.67
2018-11-23T21:34:11.608Z,41.13
2018-11-23T21:36:41.087Z,41.40
2018-11-23T21:39:13.792Z,39.93
2018-11-23T21:41:40.193Z,40.87
2018-11-23T21:44:09.753Z,41.70
2018-11-23T21:46:39.290Z,55.07
2018-11-23T21:49:08.825Z,102.53
2018-11-23T21:51:38.393Z,110.50
2018-11-23T21:54:07.944Z,55.07
2018-11-23T21:56:37.474Z,41.50
2018-11-23T21:59:07.025Z,40.17
2018-11-23T22:01:36.553Z,43.13
2018-11-23T22:04:06.707Z,43.37
2018-11-23T22:06:35.950Z,43.80
2018-11-23T22:09:07.426Z,42.97
2018-11-23T22:11:37.003Z,42.67
2018-11-23T22:14:06.935Z,44.33
2018-11-23T22:16:36.463Z,44.67
2018-11-23T22:19:06.066Z,42.53
2018-11-23T22:21:35.601Z,42.37
2018-11-23T22:24:05.555Z,41.50
2018-11-23T22:26:35.085Z,44.03
2018-11-23T22:29:04.720Z,42.13
2018-11-23T22:31:34.238Z,41.87
2018-11-23T22:34:03.853Z,39.53
2018-11-23T22:36:33.593Z,42.47
2018-11-23T22:39:03.298Z,41.53
2018-11-23T22:41:32.813Z,43.60
2018-11-23T22:44:02.366Z,44.67
2018-11-23T22:46:31.898Z,41.77
2018-11-23T22:49:01.507Z,42.80
2018-11-23T22:51:31.037Z,43.83
2018-11-23T22:54:00.586Z,44.53
2018-11-23T22:56:37.023Z,43.50
2018-11-23T22:59:07.559Z,40.33
2018-11-23T23:01:39.494Z,42.93
2018-11-23T23:04:08.998Z,42.53
2018-11-23T23:06:38.538Z,42.17
2018-11-23T23:09:09.535Z,42.83
2018-11-23T23:11:38.853Z,45.43
2018-11-23T23:14:08.385Z,42.53
2018-11-23T23:16:37.970Z,44.67
2018-11-23T23:19:07.502Z,41.97
2018-11-23T23:21:37.043Z,44.63
2018-11-23T23:24:11.627Z,41.60
2018-11-23T23:26:36.105Z,41.90
2018-11-23T23:29:05.665Z,43.33
2018-11-23T23:31:35.202Z,45.07
2018-11-23T23:34:04.798Z,43.07
2018-11-23T23:36:34.325Z,39.57
2018-11-23T23:39:05.497Z,42.70
2018-11-23T23:41:34.821Z,42.30
2018-11-23T23:44:04.411Z,42.27
2018-11-23T23:46:33.950Z,41.67
2018-11-23T23:49:03.489Z,40.50
2018-11-23T23:51:33.026Z,41.17
2018-11-23T23:54:02.564Z,41.23
2018-11-23T23:56:32.093Z,41.40
2018-11-23T23:59:01.625Z,44.83
